Portada
METAR-TAF:

METAR-TAF

Aeropuertos :

Aeropuerto Internacional Fua'amotu

Tongatapu, Tonga

latitud: 21-14S, longitud: 175-09W, altitud: 38 m

Observación

El informe se hizo hace 33 minutos, a las 13:00 UTC
Viento 3 kt del este-sureste
Temperatura 22°C
Humedad 78%
Presión 1015 hPa
Visibilidad 10 km o más
Nubes dispersas a una altura de 1800 ft
Cielo nuboso a una altura de 12000 ft

METAR: NFTF 231300Z 12003KT 9999 SCT018 BKN120 22/18 Q1015

Hora: 02:33 (13:33 UTC)

Pronóstico

El informe se hizo hace 2 horas y 33 minutos, a las 11:00 UTC
Pronóstico válido del 23 a las 12 UTC al 24 a las 12 UTC
Viento 7 kt del sureste
Visibilidad 10 km o más
Nubes dispersas a una altura de 1800 ft
Cielo nuboso a una altura de 10000 ft

TAF: NFTF 231100Z 2312/2412 13007KT 9999 SCT018 BKN100

Observaciones y pronósticos meteorológicos de más de 4000 aeropuertos (mensajes METAR y TAF).

Los puntos amarillos y rojos representan las estaciones disponibles.

Ponga el ratón en el punto deseado para ver el nombre de la estación.

Haga clic para ver las observaciones y los pronósticos meteorológicos.

Para cambiar el mapa : haga clic en los botones verdes con una cruz de color negro para hacer un zoom, en el botón verde con un guión para alejar o en las flechas verdes para mapas adyacentes.


METAR-TAF: